Time;durP1;ratioP1;P1;durP2;ratioP2;P2;SDS_P1;SDS_P2;PMS_P1;PMS_P2;Temp;Humidity;BMP_temperature;BMP_pressure;BME280_temperature;BME280_humidity;BME280_pressure;Samples;Min_cycle;Max_cycle;Signal;HPM_P1;HPM_P2
2021/04/20 00:00:54;;;;;;;8.50;4.28;;;;;;;;;;5068789;28;20040;-49
2021/04/20 00:03:20;;;;;;;18.67;5.10;;;;;;;;;;5068917;28;20048;-46
2021/04/20 00:05:46;;;;;;;12.27;4.97;;;;;;;;;;5069665;28;20067;-49
2021/04/20 00:08:13;;;;;;;12.60;4.75;;;;;;;;;;5066656;28;20086;-47
2021/04/20 00:10:39;;;;;;;13.10;4.20;;;;;;;;;;5064149;28;20033;-47
2021/04/20 00:13:05;;;;;;;13.60;3.95;;;;;;;;;;5067470;28;20049;-49
2021/04/20 00:15:32;;;;;;;12.02;4.63;;;;;;;;;;5068966;28;20056;-48
2021/04/20 00:18:00;;;;;;;9.23;3.95;;;;;;;;;;5065457;28;20083;-50
2021/04/20 00:20:26;;;;;;;8.35;3.85;;;;;;;;;;5067044;28;20044;-48
2021/04/20 00:22:53;;;;;;;12.70;4.38;;;;;;;;;;5069767;28;20045;-47
2021/04/20 00:25:19;;;;;;;15.23;4.30;;;;;;;;;;5066048;28;20094;-51
2021/04/20 00:27:46;;;;;;;12.63;4.53;;;;;;;;;;5066828;28;20040;-47
2021/04/20 00:30:13;;;;;;;12.85;4.30;;;;;;;;;;5064647;28;20052;-48
2021/04/20 00:32:39;;;;;;;11.80;4.47;;;;;;;;;;5068916;28;20098;-49
2021/04/20 00:35:06;;;;;;;10.50;4.25;;;;;;;;;;5067201;28;20044;-49
2021/04/20 00:37:32;;;;;;;11.03;4.83;;;;;;;;;;5068921;28;20048;-49
2021/04/20 00:39:59;;;;;;;20.05;5.18;;;;;;;;;;5066905;28;20290;-50
2021/04/20 00:42:26;;;;;;;10.60;4.32;;;;;;;;;;5063868;28;20048;-47
2021/04/20 00:44:53;;;;;;;9.48;4.20;;;;;;;;;;5067881;28;20064;-47
2021/04/20 00:47:20;;;;;;;20.47;5.47;;;;;;;;;;5066355;28;20052;-47
2021/04/20 00:49:47;;;;;;;13.30;4.90;;;;;;;;;;5068584;28;20486;-47
2021/04/20 00:52:14;;;;;;;12.88;5.07;;;;;;;;;;5065342;28;20155;-47
2021/04/20 00:54:40;;;;;;;14.57;5.38;;;;;;;;;;5066899;28;20071;-49
2021/04/20 00:57:07;;;;;;;8.52;3.97;;;;;;;;;;5067803;28;20045;-49
2021/04/20 00:59:34;;;;;;;12.60;5.22;;;;;;;;;;5066344;28;20086;-47
2021/04/20 01:02:00;;;;;;;11.75;4.82;;;;;;;;;;5064949;28;20041;-47
2021/04/20 01:04:26;;;;;;;16.13;4.10;;;;;;;;;;5069336;28;20044;-47
2021/04/20 01:06:53;;;;;;;12.48;4.45;;;;;;;;;;5066442;28;20044;-47
2021/04/20 01:09:19;;;;;;;16.42;4.82;;;;;;;;;;5066066;28;20208;-47
2021/04/20 01:11:46;;;;;;;11.73;4.60;;;;;;;;;;5068562;28;20114;-46
2021/04/20 01:14:13;;;;;;;15.73;4.95;;;;;;;;;;5066497;28;20434;-49
2021/04/20 01:16:39;;;;;;;11.00;3.92;;;;;;;;;;5065298;28;20044;-46
2021/04/20 01:19:06;;;;;;;15.60;4.45;;;;;;;;;;5067116;28;20052;-49
2021/04/20 01:21:34;;;;;;;10.52;4.32;;;;;;;;;;5066096;28;20071;-49
2021/04/20 01:24:10;;;;;;;13.65;4.55;;;;;;;;;;5066559;28;20204;-47
2021/04/20 01:26:39;;;;;;;11.95;4.30;;;;;;;;;;5064561;28;20044;-49
2021/04/20 01:29:05;;;;;;;12.02;4.60;;;;;;;;;;5066066;28;20049;-47
2021/04/20 01:31:32;;;;;;;15.18;4.28;;;;;;;;;;5067620;28;20488;-47
2021/04/20 01:34:01;;;;;;;10.90;4.65;;;;;;;;;;5066525;28;20124;-46
2021/04/20 01:36:28;;;;;;;12.23;3.97;;;;;;;;;;5067615;28;20033;-47
2021/04/20 01:38:55;;;;;;;8.68;4.45;;;;;;;;;;5066421;28;20114;-48
2021/04/20 01:41:24;;;;;;;19.00;5.05;;;;;;;;;;5066748;28;20048;-46
2021/04/20 01:43:51;;;;;;;17.85;4.68;;;;;;;;;;5067507;28;20131;-46
2021/04/20 01:46:18;;;;;;;13.30;4.72;;;;;;;;;;5065715;28;20086;-48
2021/04/20 01:48:45;;;;;;;11.25;4.63;;;;;;;;;;5065273;28;20036;-48
2021/04/20 01:51:12;;;;;;;12.48;4.40;;;;;;;;;;5063534;28;20044;-46
2021/04/20 01:53:38;;;;;;;14.60;4.45;;;;;;;;;;5066856;28;20037;-47
2021/04/20 01:56:05;;;;;;;15.77;4.55;;;;;;;;;;5064578;28;20055;-49
2021/04/20 01:58:32;;;;;;;8.05;4.20;;;;;;;;;;5067831;28;20040;-47
2021/04/20 02:00:59;;;;;;;11.40;4.38;;;;;;;;;;5068636;28;20098;-47
2021/04/20 02:03:28;;;;;;;14.07;4.43;;;;;;;;;;5065460;28;20040;-46
2021/04/20 02:05:54;;;;;;;11.05;4.53;;;;;;;;;;5058685;28;20083;-48
2021/04/20 02:08:21;;;;;;;10.45;4.72;;;;;;;;;;5063005;28;20560;-46
2021/04/20 02:10:47;;;;;;;9.07;4.13;;;;;;;;;;5063909;28;20037;-48
2021/04/20 02:13:14;;;;;;;9.52;4.75;;;;;;;;;;5066472;28;20504;-47
2021/04/20 02:15:40;;;;;;;10.32;4.50;;;;;;;;;;5065311;28;20086;-50
2021/04/20 02:18:08;;;;;;;10.75;4.25;;;;;;;;;;5063545;28;20045;-47
2021/04/20 02:20:35;;;;;;;13.02;4.35;;;;;;;;;;5067122;28;20943;-49
2021/04/20 02:23:01;;;;;;;11.27;4.65;;;;;;;;;;5067994;28;20049;-46
2021/04/20 02:25:28;;;;;;;11.67;4.13;;;;;;;;;;5067569;28;20036;-46
2021/04/20 02:27:54;;;;;;;7.90;4.18;;;;;;;;;;5070495;28;20507;-46
2021/04/20 02:30:20;;;;;;;8.18;4.20;;;;;;;;;;5068630;28;20049;-48
2021/04/20 02:32:46;;;;;;;12.75;5.18;;;;;;;;;;5069481;28;20055;-47
2021/04/20 02:35:14;;;;;;;13.82;4.50;;;;;;;;;;5070430;28;20098;-48
2021/04/20 02:37:41;;;;;;;11.90;4.97;;;;;;;;;;5069242;28;20043;-48
2021/04/20 02:40:08;;;;;;;;;;;;;;;;;;5070128;28;20571;-49
2021/04/20 02:42:34;;;;;;;13.60;4.90;;;;;;;;;;5069498;28;20375;-47
2021/04/20 02:45:00;;;;;;;6.97;3.10;;;;;;;;;;5069999;28;20618;-46
2021/04/20 02:47:28;;;;;;;7.68;4.47;;;;;;;;;;5069034;28;20048;-46
2021/04/20 02:49:56;;;;;;;8.88;4.50;;;;;;;;;;5068960;28;20033;-47
2021/04/20 02:52:22;;;;;;;11.10;4.82;;;;;;;;;;5067044;28;20049;-47
2021/04/20 02:54:49;;;;;;;16.70;4.70;;;;;;;;;;5071700;28;20529;-47
2021/04/20 02:57:15;;;;;;;10.95;4.40;;;;;;;;;;5068741;28;20539;-49
2021/04/20 02:59:42;;;;;;;13.90;4.18;;;;;;;;;;5071767;28;20036;-47
2021/04/20 03:02:09;;;;;;;12.35;4.13;;;;;;;;;;5069792;28;20044;-47
2021/04/20 03:04:38;;;;;;;11.35;5.10;;;;;;;;;;5070086;28;20056;-49
2021/04/20 03:07:04;;;;;;;10.93;5.22;;;;;;;;;;5068156;28;20585;-46
2021/04/20 03:09:30;;;;;;;8.48;4.38;;;;;;;;;;5068516;28;20893;-48
2021/04/20 03:11:58;;;;;;;14.25;5.10;;;;;;;;;;5070480;28;20092;-47
2021/04/20 03:14:25;;;;;;;10.55;4.75;;;;;;;;;;5069937;28;20497;-47
2021/04/20 03:16:51;;;;;;;13.90;5.38;;;;;;;;;;5069539;28;20048;-47
2021/04/20 03:19:18;;;;;;;13.50;5.35;;;;;;;;;;5066890;28;20527;-46
2021/04/20 03:21:45;;;;;;;9.65;4.60;;;;;;;;;;5065626;28;20040;-46
2021/04/20 03:24:30;;;;;;;12.93;4.95;;;;;;;;;;5068864;28;20500;-46
2021/04/20 03:26:56;;;;;;;10.20;4.80;;;;;;;;;;5068582;28;20114;-47
2021/04/20 03:29:23;;;;;;;11.45;4.85;;;;;;;;;;5068022;28;20590;-47
2021/04/20 03:31:50;;;;;;;13.55;4.68;;;;;;;;;;5068488;28;20488;-47
2021/04/20 03:34:23;;;;;;;8.88;4.40;;;;;;;;;;5067835;28;20099;-46
2021/04/20 03:36:56;;;;;;;10.90;4.50;;;;;;;;;;5067839;28;20028;-46
2021/04/20 03:39:23;;;;;;;24.88;5.50;;;;;;;;;;5084519;28;20056;-48
2021/04/20 03:41:58;;;;;;;14.80;5.68;;;;;;;;;;5065961;28;20548;-48
2021/04/20 03:44:27;;;;;;;11.50;4.90;;;;;;;;;;5069861;28;20040;-48
2021/04/20 03:46:55;;;;;;;18.17;5.57;;;;;;;;;;5069235;28;20064;-47
2021/04/20 03:49:21;;;;;;;17.05;4.88;;;;;;;;;;5068769;28;20037;-45
2021/04/20 03:51:50;;;;;;;10.67;3.87;;;;;;;;;;5064686;28;20037;-46
2021/04/20 03:54:17;;;;;;;10.57;4.88;;;;;;;;;;5068066;28;20408;-47
2021/04/20 03:56:44;;;;;;;8.48;4.13;;;;;;;;;;5067769;28;20130;-46
2021/04/20 03:59:11;;;;;;;11.80;5.18;;;;;;;;;;5066567;28;20029;-46
2021/04/20 04:01:39;;;;;;;13.73;4.75;;;;;;;;;;5067652;28;20044;-45
2021/04/20 04:04:06;;;;;;;15.60;5.20;;;;;;;;;;5067555;28;20050;-47
2021/04/20 04:06:35;;;;;;;8.77;4.82;;;;;;;;;;5066422;28;20503;-46
2021/04/20 04:09:02;;;;;;;10.45;4.93;;;;;;;;;;5066088;28;20045;-47
2021/04/20 04:11:36;;;;;;;10.50;5.13;;;;;;;;;;5069713;28;20074;-46
2021/04/20 04:14:03;;;;;;;15.82;5.43;;;;;;;;;;5071548;28;20045;-47
2021/04/20 04:16:30;;;;;;;10.25;3.83;;;;;;;;;;5070501;28;20063;-46
2021/04/20 04:18:57;;;;;;;12.52;4.93;;;;;;;;;;5066270;28;20052;-47
2021/04/20 04:21:29;;;;;;;10.13;4.75;;;;;;;;;;5065620;28;20477;-46
2021/04/20 04:23:59;;;;;;;9.45;4.43;;;;;;;;;;5065143;28;20036;-46
2021/04/20 04:26:30;;;;;;;8.77;4.20;;;;;;;;;;5071479;28;20043;-48
2021/04/20 04:29:05;;;;;;;13.70;4.18;;;;;;;;;;5065382;28;20052;-51
2021/04/20 04:31:35;;;;;;;11.60;4.10;;;;;;;;;;5068684;28;20122;-49
2021/04/20 04:34:03;;;;;;;9.82;4.32;;;;;;;;;;5067313;28;20091;-48
2021/04/20 04:36:29;;;;;;;11.02;4.13;;;;;;;;;;5067056;28;20033;-47
2021/04/20 04:38:56;;;;;;;11.98;4.10;;;;;;;;;;5065303;28;20095;-47
2021/04/20 04:41:22;;;;;;;10.60;4.93;;;;;;;;;;5067235;28;20036;-46
2021/04/20 04:43:49;;;;;;;8.82;3.80;;;;;;;;;;5065835;28;20526;-47
2021/04/20 04:46:15;;;;;;;11.18;3.83;;;;;;;;;;5067295;28;20041;-48
2021/04/20 04:48:42;;;;;;;10.73;4.10;;;;;;;;;;5066286;28;20044;-46
2021/04/20 04:51:09;;;;;;;9.82;4.68;;;;;;;;;;5065950;28;20049;-48
2021/04/20 04:53:36;;;;;;;9.55;3.88;;;;;;;;;;5065459;28;20044;-49
2021/04/20 04:56:03;;;;;;;12.32;4.22;;;;;;;;;;5069681;28;20045;-49
2021/04/20 04:58:32;;;;;;;8.15;3.53;;;;;;;;;;5070059;28;20043;-48
2021/04/20 05:01:01;;;;;;;7.35;3.83;;;;;;;;;;5069610;28;20523;-45
2021/04/20 05:03:27;;;;;;;6.57;4.20;;;;;;;;;;5067981;28;20047;-49
2021/04/20 05:05:55;;;;;;;8.73;3.58;;;;;;;;;;5066780;28;20307;-47
2021/04/20 05:08:21;;;;;;;8.15;3.83;;;;;;;;;;5069738;28;20103;-50
2021/04/20 05:10:47;;;;;;;15.77;4.60;;;;;;;;;;5066841;28;20053;-47
2021/04/20 05:13:13;;;;;;;10.75;4.20;;;;;;;;;;5070739;28;20151;-46
2021/04/20 05:15:41;;;;;;;7.75;3.78;;;;;;;;;;5068514;28;20045;-46
2021/04/20 05:18:10;;;;;;;8.95;4.10;;;;;;;;;;5065059;28;20499;-47
2021/04/20 05:20:41;;;;;;;8.98;4.50;;;;;;;;;;5068480;28;20842;-45
2021/04/20 05:23:08;;;;;;;8.85;4.22;;;;;;;;;;5069578;28;20041;-46
2021/04/20 05:25:34;;;;;;;12.57;4.20;;;;;;;;;;5065330;28;20514;-46
2021/04/20 05:28:00;;;;;;;8.10;4.15;;;;;;;;;;5067060;28;20041;-46
2021/04/20 05:30:27;;;;;;;7.38;4.07;;;;;;;;;;5068247;28;20555;-46
2021/04/20 05:32:53;;;;;;;9.50;4.05;;;;;;;;;;5065614;28;20060;-47
2021/04/20 05:35:23;;;;;;;8.15;3.17;;;;;;;;;;5064889;28;20041;-49
2021/04/20 05:37:49;;;;;;;11.85;4.85;;;;;;;;;;5069066;28;20059;-48
2021/04/20 05:40:17;;;;;;;10.10;4.85;;;;;;;;;;5067167;28;20044;-46
2021/04/20 05:42:43;;;;;;;;;;;;;;;;;;5064499;28;20045;-46
2021/04/20 05:45:10;;;;;;;7.65;4.15;;;;;;;;;;5070604;28;20360;-47
2021/04/20 05:47:37;;;;;;;;;;;;;;;;;;5069603;28;20112;-50
2021/04/20 05:50:04;;;;;;;6.65;4.15;;;;;;;;;;5066760;28;19990;-47
2021/04/20 05:52:34;;;;;;;9.65;4.47;;;;;;;;;;5069220;28;20145;-49
2021/04/20 05:55:00;;;;;;;10.80;4.43;;;;;;;;;;5069720;28;20059;-46
2021/04/20 05:57:26;;;;;;;7.22;4.10;;;;;;;;;;5067064;28;20071;-47
2021/04/20 05:59:54;;;;;;;7.18;3.95;;;;;;;;;;5066566;28;20044;-47
2021/04/20 06:02:20;;;;;;;10.68;4.00;;;;;;;;;;5069028;28;20492;-48
2021/04/20 06:04:50;;;;;;;19.90;5.32;;;;;;;;;;5064327;28;20051;-47
2021/04/20 06:07:16;;;;;;;10.82;4.35;;;;;;;;;;5065606;28;20040;-47
2021/04/20 06:09:46;;;;;;;11.90;4.57;;;;;;;;;;5069590;28;20037;-46
2021/04/20 06:12:13;;;;;;;11.98;4.18;;;;;;;;;;5067079;28;20064;-48
2021/04/20 06:14:40;;;;;;;10.57;2.88;;;;;;;;;;5068241;28;20492;-48
2021/04/20 06:17:15;;;;;;;9.15;3.92;;;;;;;;;;5068321;28;20077;-48
2021/04/20 06:19:42;;;;;;;12.82;3.85;;;;;;;;;;5066635;28;20049;-50
2021/04/20 06:22:10;;;;;;;11.00;4.05;;;;;;;;;;5069083;28;20079;-46
2021/04/20 06:24:36;;;;;;;8.32;4.13;;;;;;;;;;5066614;28;20105;-47
2021/04/20 06:27:03;;;;;;;9.85;4.50;;;;;;;;;;5062609;28;20075;-48
2021/04/20 06:29:29;;;;;;;11.23;4.28;;;;;;;;;;5064910;28;20056;-48
2021/04/20 06:31:56;;;;;;;7.05;3.70;;;;;;;;;;5064767;28;20070;-46
2021/04/20 06:34:23;;;;;;;12.20;3.60;;;;;;;;;;5070033;28;20098;-46
2021/04/20 06:36:53;;;;;;;9.65;3.60;;;;;;;;;;5063415;28;20132;-49
2021/04/20 06:39:19;;;;;;;9.80;3.85;;;;;;;;;;5064422;28;20079;-47
2021/04/20 06:41:46;;;;;;;;;;;;;;;;;;5069556;28;20044;-48
2021/04/20 06:44:21;;;;;;;7.30;3.65;;;;;;;;;;5069040;28;19924;-47
2021/04/20 06:46:50;;;;;;;9.10;3.33;;;;;;;;;;5066696;28;20044;-47
2021/04/20 06:49:23;;;;;;;8.75;3.70;;;;;;;;;;5065155;28;20041;-48
2021/04/20 06:51:50;;;;;;;4.95;3.42;;;;;;;;;;5069839;28;20071;-48
2021/04/20 06:54:24;;;;;;;9.43;3.70;;;;;;;;;;5067121;28;20408;-49
2021/04/20 06:56:59;;;;;;;6.43;3.40;;;;;;;;;;5066419;28;20455;-51
2021/04/20 06:59:44;;;;;;;9.30;3.45;;;;;;;;;;5065536;28;20407;-48
2021/04/20 07:02:34;;;;;;;11.43;3.83;;;;;;;;;;5066889;28;20097;-49
2021/04/20 07:05:01;;;;;;;8.32;3.60;;;;;;;;;;5066167;28;20068;-48
2021/04/20 07:07:37;;;;;;;5.68;3.53;;;;;;;;;;5071252;28;20090;-49
2021/04/20 07:10:07;;;;;;;12.82;3.85;;;;;;;;;;5071448;28;20106;-50
2021/04/20 07:12:34;;;;;;;9.30;3.38;;;;;;;;;;5072769;28;20114;-49
2021/04/20 07:15:02;;;;;;;6.30;3.63;;;;;;;;;;5069826;28;20041;-50
2021/04/20 07:17:44;;;;;;;9.57;3.55;;;;;;;;;;5069463;28;20087;-48
2021/04/20 07:20:18;;;;;;;6.78;3.40;;;;;;;;;;5067507;28;20090;-47
2021/04/20 07:23:02;;;;;;;5.43;3.15;;;;;;;;;;5071220;28;20060;-48
2021/04/20 07:25:47;;;;;;;9.82;3.40;;;;;;;;;;5074123;28;20070;-47
2021/04/20 07:28:32;;;;;;;9.23;3.72;;;;;;;;;;5067753;28;20056;-48
2021/04/20 07:31:09;;;;;;;5.72;3.10;;;;;;;;;;5069426;28;20562;-47
2021/04/20 07:34:01;;;;;;;8.57;3.00;;;;;;;;;;5068529;28;20053;-49
2021/04/20 07:36:48;;;;;;;9.88;3.30;;;;;;;;;;5069912;28;20048;-49
2021/04/20 07:39:17;;;;;;;5.47;2.85;;;;;;;;;;5070679;28;20510;-52
2021/04/20 07:41:48;;;;;;;4.85;2.88;;;;;;;;;;5066776;28;20050;-46
2021/04/20 07:44:33;;;;;;;7.40;3.08;;;;;;;;;;5071477;28;20048;-47
2021/04/20 07:47:09;;;;;;;6.25;2.80;;;;;;;;;;5067760;28;20043;-47
2021/04/20 07:49:54;;;;;;;5.82;2.83;;;;;;;;;;5070649;28;20052;-49
2021/04/20 07:52:32;;;;;;;8.20;2.85;;;;;;;;;;5066227;28;20040;-47
2021/04/20 07:55:07;;;;;;;11.45;3.13;;;;;;;;;;5066547;28;20554;-49
2021/04/20 07:57:37;;;;;;;7.22;3.10;;;;;;;;;;5067311;28;20086;-47
2021/04/20 08:00:10;;;;;;;5.13;2.45;;;;;;;;;;5066619;28;21932;-47
2021/04/20 08:02:47;;;;;;;9.35;2.85;;;;;;;;;;5066690;28;20068;-51
2021/04/20 08:05:25;;;;;;;5.97;2.75;;;;;;;;;;5068536;28;20049;-50
2021/04/20 08:07:56;;;;;;;5.63;2.83;;;;;;;;;;5067202;28;20044;-47
2021/04/20 08:10:29;;;;;;;5.88;3.17;;;;;;;;;;5067907;28;20094;-48
2021/04/20 08:13:04;;;;;;;8.05;2.83;;;;;;;;;;5068706;28;20045;-47
2021/04/20 08:15:34;;;;;;;8.93;3.08;;;;;;;;;;5072830;28;20044;-47
2021/04/20 08:18:07;;;;;;;7.72;2.67;;;;;;;;;;5067640;28;20480;-47
2021/04/20 08:20:37;;;;;;;6.60;2.85;;;;;;;;;;5064986;28;20155;-48
2021/04/20 08:23:04;;;;;;;6.93;2.70;;;;;;;;;;5072506;28;20140;-47
2021/04/20 08:25:44;;;;;;;7.90;2.80;;;;;;;;;;5069845;28;20036;-47
2021/04/20 08:28:15;;;;;;;6.70;2.72;;;;;;;;;;5069043;28;20366;-52
2021/04/20 08:30:44;;;;;;;5.80;2.30;;;;;;;;;;5066434;28;20130;-52
2021/04/20 08:33:39;;;;;;;8.13;3.00;;;;;;;;;;5070726;28;20048;-48
2021/04/20 08:36:16;;;;;;;7.93;2.72;;;;;;;;;;5067770;28;20049;-49
2021/04/20 08:38:42;;;;;;;8.15;2.60;;;;;;;;;;5067055;28;20052;-49
2021/04/20 08:41:13;;;;;;;7.75;2.72;;;;;;;;;;5067375;28;20115;-50
2021/04/20 08:43:46;;;;;;;7.40;2.72;;;;;;;;;;5064980;28;20676;-49
2021/04/20 08:46:24;;;;;;;3.83;2.25;;;;;;;;;;5067934;28;20048;-49
2021/04/20 08:49:09;;;;;;;4.53;1.95;;;;;;;;;;5065342;28;20440;-49
2021/04/20 08:51:53;;;;;;;6.43;2.33;;;;;;;;;;5063881;28;20476;-51
2021/04/20 08:54:19;;;;;;;7.00;2.30;;;;;;;;;;5067941;28;20037;-47
2021/04/20 08:56:57;;;;;;;7.13;2.40;;;;;;;;;;5065283;28;20432;-47
2021/04/20 08:59:29;;;;;;;5.82;2.35;;;;;;;;;;5065893;28;20040;-49
2021/04/20 09:02:21;;;;;;;7.28;2.45;;;;;;;;;;5070706;28;20047;-48
2021/04/20 09:04:57;;;;;;;9.45;2.90;;;;;;;;;;5073211;28;20048;-52
2021/04/20 09:07:34;;;;;;;5.85;2.53;;;;;;;;;;5070575;28;20082;-49
2021/04/20 09:10:04;;;;;;;4.38;2.33;;;;;;;;;;5068227;28;20492;-50
2021/04/20 09:12:34;;;;;;;6.88;2.55;;;;;;;;;;5067553;28;20047;-50
2021/04/20 09:15:01;;;;;;;7.22;2.35;;;;;;;;;;5065222;28;20530;-49
2021/04/20 09:17:30;;;;;;;9.60;2.70;;;;;;;;;;5061641;28;20536;-50
2021/04/20 09:20:00;;;;;;;5.93;2.30;;;;;;;;;;5067978;28;20131;-48
2021/04/20 09:22:39;;;;;;;7.40;2.30;;;;;;;;;;5068921;28;20044;-50
2021/04/20 09:25:12;;;;;;;6.03;2.67;;;;;;;;;;5065531;28;20052;-51
2021/04/20 09:27:48;;;;;;;5.22;2.50;;;;;;;;;;5067124;28;20032;-48
2021/04/20 09:30:16;;;;;;;8.32;2.42;;;;;;;;;;5069913;28;20060;-48
2021/04/20 09:32:53;;;;;;;4.82;2.30;;;;;;;;;;5070787;28;20478;-48
2021/04/20 09:35:20;;;;;;;4.38;2.20;;;;;;;;;;5067516;28;20048;-50
2021/04/20 09:37:48;;;;;;;6.22;2.40;;;;;;;;;;5068981;28;20086;-49
2021/04/20 09:40:15;;;;;;;5.40;2.50;;;;;;;;;;5069121;28;20707;-49
2021/04/20 09:42:44;;;;;;;5.72;2.30;;;;;;;;;;5067065;28;20033;-50
2021/04/20 09:45:14;;;;;;;9.15;2.40;;;;;;;;;;5066412;28;20044;-50
2021/04/20 09:47:49;;;;;;;7.55;2.30;;;;;;;;;;5068338;28;20041;-52
2021/04/20 09:50:33;;;;;;;5.68;2.42;;;;;;;;;;5067892;28;20491;-48
2021/04/20 09:53:06;;;;;;;4.00;2.25;;;;;;;;;;5070175;28;20055;-51
2021/04/20 09:55:34;;;;;;;5.82;2.58;;;;;;;;;;5066730;28;20071;-51
2021/04/20 09:58:02;;;;;;;6.97;2.30;;;;;;;;;;5068524;28;20051;-48
2021/04/20 10:00:29;;;;;;;5.60;2.40;;;;;;;;;;5068227;28;20040;-50
2021/04/20 10:03:06;;;;;;;7.75;2.60;;;;;;;;;;5068449;28;20040;-49
2021/04/20 10:05:51;;;;;;;9.88;2.78;;;;;;;;;;5069574;28;20051;-49
2021/04/20 10:08:34;;;;;;;5.30;2.55;;;;;;;;;;5068226;28;20885;-51
2021/04/20 10:11:09;;;;;;;7.32;2.75;;;;;;;;;;5069245;28;20480;-52
2021/04/20 10:13:58;;;;;;;4.22;2.13;;;;;;;;;;5065751;28;20044;-49
2021/04/20 10:16:51;;;;;;;4.40;2.78;;;;;;;;;;5064620;28;20515;-49
2021/04/20 10:19:22;;;;;;;4.03;2.45;;;;;;;;;;5061690;28;20059;-51
2021/04/20 10:21:51;;;;;;;7.18;2.40;;;;;;;;;;5065724;28;20955;-51
2021/04/20 10:24:27;;;;;;;7.75;2.40;;;;;;;;;;5071314;28;20040;-50
2021/04/20 10:26:55;;;;;;;5.70;2.53;;;;;;;;;;5068477;28;20044;-52
2021/04/20 10:29:25;;;;;;;5.70;2.63;;;;;;;;;;5067345;28;20495;-48
2021/04/20 10:32:10;;;;;;;5.82;2.40;;;;;;;;;;5068273;28;20044;-49
2021/04/20 10:34:42;;;;;;;7.22;2.35;;;;;;;;;;5064760;28;20048;-50
2021/04/20 10:37:10;;;;;;;6.78;2.38;;;;;;;;;;5065367;28;20037;-51
2021/04/20 10:39:37;;;;;;;4.25;2.20;;;;;;;;;;5068758;28;20135;-49
2021/04/20 10:42:03;;;;;;;;;;;;;;;;;;5074587;28;20131;-51
2021/04/20 10:44:33;;;;;;;5.65;2.35;;;;;;;;;;5069878;28;19931;-50
2021/04/20 10:47:00;;;;;;;5.07;2.40;;;;;;;;;;5070811;28;20056;-50
2021/04/20 10:49:27;;;;;;;4.85;2.25;;;;;;;;;;5069733;28;20041;-53
2021/04/20 10:51:58;;;;;;;9.32;2.80;;;;;;;;;;5073581;28;20068;-51
2021/04/20 10:54:30;;;;;;;5.32;2.65;;;;;;;;;;5068796;28;20072;-48
2021/04/20 10:56:57;;;;;;;5.18;2.60;;;;;;;;;;5066866;28;20040;-49
2021/04/20 10:59:43;;;;;;;5.93;2.72;;;;;;;;;;5070350;28;20039;-50
2021/04/20 11:02:11;;;;;;;3.83;2.08;;;;;;;;;;5069727;28;20040;-49
2021/04/20 11:04:38;;;;;;;8.55;2.70;;;;;;;;;;5068845;28;20124;-48
2021/04/20 11:07:19;;;;;;;9.98;2.97;;;;;;;;;;5068556;28;20424;-49
2021/04/20 11:10:01;;;;;;;8.80;2.53;;;;;;;;;;5070920;28;20563;-49
2021/04/20 11:12:27;;;;;;;8.02;2.55;;;;;;;;;;5068820;28;20119;-49
2021/04/20 11:14:54;;;;;;;3.97;2.25;;;;;;;;;;5069701;28;20052;-48
2021/04/20 11:17:22;;;;;;;5.60;2.50;;;;;;;;;;5069089;28;20044;-50
2021/04/20 11:19:52;;;;;;;6.65;2.30;;;;;;;;;;5068995;28;20055;-48
2021/04/20 11:22:19;;;;;;;6.97;3.13;;;;;;;;;;5073048;28;20109;-49
2021/04/20 11:24:48;;;;;;;5.35;2.38;;;;;;;;;;5072631;28;20049;-51
2021/04/20 11:27:17;;;;;;;4.80;2.50;;;;;;;;;;5068583;28;20109;-50
2021/04/20 11:29:49;;;;;;;8.48;2.45;;;;;;;;;;5071157;28;20048;-51
2021/04/20 11:32:17;;;;;;;4.95;2.38;;;;;;;;;;5073830;28;20102;-54
2021/04/20 11:34:45;;;;;;;6.88;2.45;;;;;;;;;;5071039;28;20488;-48
2021/04/20 11:37:12;;;;;;;7.80;2.60;;;;;;;;;;5069176;28;20090;-49
2021/04/20 11:39:42;;;;;;;4.55;2.30;;;;;;;;;;5072744;28;20045;-50
2021/04/20 11:42:12;;;;;;;6.30;2.78;;;;;;;;;;5067750;28;20500;-49
2021/04/20 11:44:40;;;;;;;4.45;2.53;;;;;;;;;;5069309;28;20040;-48
2021/04/20 11:47:05;;;;;;;;;;;;;;;;;;5064909;28;20064;-53
2021/04/20 11:49:32;;;;;;;5.68;2.45;;;;;;;;;;5070748;28;19971;-48
2021/04/20 11:52:02;;;;;;;3.93;2.10;;;;;;;;;;5072621;28;20163;-50
2021/04/20 11:54:30;;;;;;;10.55;2.70;;;;;;;;;;5071487;28;20302;-50
2021/04/20 11:56:58;;;;;;;8.80;2.92;;;;;;;;;;5067855;28;20076;-50
2021/04/20 11:59:25;;;;;;;9.65;2.63;;;;;;;;;;5067384;28;20126;-52
2021/04/20 12:01:53;;;;;;;8.47;3.17;;;;;;;;;;5065937;28;20040;-48
2021/04/20 12:04:31;;;;;;;11.07;2.85;;;;;;;;;;5072150;28;20048;-52
2021/04/20 12:06:58;;;;;;;7.20;2.58;;;;;;;;;;5069401;28;20230;-52
2021/04/20 12:09:36;;;;;;;3.80;2.25;;;;;;;;;;5068626;28;20072;-49
2021/04/20 12:12:03;;;;;;;6.13;2.83;;;;;;;;;;5067856;28;20404;-52
2021/04/20 12:14:31;;;;;;;6.32;2.08;;;;;;;;;;5070996;28;20115;-48
2021/04/20 12:16:58;;;;;;;5.80;2.30;;;;;;;;;;5069794;28;20036;-48
2021/04/20 12:19:26;;;;;;;6.13;2.55;;;;;;;;;;5065613;28;20067;-52
2021/04/20 12:21:58;;;;;;;5.68;2.35;;;;;;;;;;5070357;28;20508;-51
2021/04/20 12:24:25;;;;;;;11.13;2.67;;;;;;;;;;5071808;28;20192;-51
2021/04/20 12:26:54;;;;;;;8.07;2.80;;;;;;;;;;5068994;28;20040;-53
2021/04/20 12:29:22;;;;;;;6.28;2.55;;;;;;;;;;5069595;28;20825;-52
2021/04/20 12:31:48;;;;;;;4.80;2.75;;;;;;;;;;5069422;28;20067;-52
2021/04/20 12:34:17;;;;;;;11.63;3.28;;;;;;;;;;5072689;28;20118;-50
2021/04/20 12:36:49;;;;;;;6.18;2.65;;;;;;;;;;5068597;28;20458;-52
2021/04/20 12:39:25;;;;;;;5.57;2.53;;;;;;;;;;5067618;28;20068;-49
2021/04/20 12:41:53;;;;;;;6.00;2.53;;;;;;;;;;5067905;28;20072;-49
2021/04/20 12:44:22;;;;;;;5.88;2.40;;;;;;;;;;5068723;28;20390;-47
2021/04/20 12:46:52;;;;;;;6.47;2.67;;;;;;;;;;5070708;28;20044;-50
2021/04/20 12:49:21;;;;;;;5.55;2.53;;;;;;;;;;5070305;28;20056;-51
2021/04/20 12:51:47;;;;;;;7.90;2.50;;;;;;;;;;5067743;28;20045;-49
2021/04/20 12:54:17;;;;;;;4.38;2.30;;;;;;;;;;5068036;28;20484;-50
2021/04/20 12:56:44;;;;;;;9.15;2.20;;;;;;;;;;5067873;28;20044;-48
2021/04/20 12:59:18;;;;;;;4.80;2.42;;;;;;;;;;5069160;28;20048;-51
2021/04/20 13:01:49;;;;;;;8.48;2.53;;;;;;;;;;5063847;28;20082;-48
2021/04/20 13:04:16;;;;;;;6.20;2.13;;;;;;;;;;5065881;28;20840;-48
2021/04/20 13:06:46;;;;;;;7.82;2.65;;;;;;;;;;5069138;28;20393;-50
2021/04/20 13:09:13;;;;;;;3.38;2.20;;;;;;;;;;5069309;28;20079;-50
2021/04/20 13:11:40;;;;;;;6.22;2.40;;;;;;;;;;5066415;28;20037;-49
2021/04/20 13:14:07;;;;;;;4.85;2.40;;;;;;;;;;5069017;28;20139;-49
2021/04/20 13:16:35;;;;;;;5.25;2.30;;;;;;;;;;5071130;28;20036;-46
2021/04/20 13:19:10;;;;;;;5.50;2.30;;;;;;;;;;5065889;28;20049;-48
2021/04/20 13:21:40;;;;;;;6.85;2.50;;;;;;;;;;5065265;28;20044;-51
2021/04/20 13:24:11;;;;;;;6.22;2.10;;;;;;;;;;5066257;28;20041;-49
2021/04/20 13:26:38;;;;;;;8.52;3.20;;;;;;;;;;5068872;28;20044;-48
2021/04/20 13:29:09;;;;;;;7.73;3.27;;;;;;;;;;5067800;28;20063;-47
2021/04/20 13:31:38;;;;;;;5.50;2.50;;;;;;;;;;5069724;28;20044;-51
2021/04/20 13:34:10;;;;;;;4.93;2.13;;;;;;;;;;5070204;28;20070;-48
2021/04/20 13:36:44;;;;;;;4.75;2.30;;;;;;;;;;5069200;28;20040;-48
2021/04/20 13:39:15;;;;;;;8.13;2.67;;;;;;;;;;5069387;28;20037;-48
2021/04/20 13:42:05;;;;;;;5.22;2.35;;;;;;;;;;5067115;28;20041;-47
2021/04/20 13:44:32;;;;;;;3.92;2.15;;;;;;;;;;5060228;28;20051;-49
2021/04/20 13:46:59;;;;;;;4.38;2.15;;;;;;;;;;5065701;28;20504;-51
2021/04/20 13:49:26;;;;;;;7.90;2.28;;;;;;;;;;5068287;28;20453;-47
2021/04/20 13:51:54;;;;;;;9.05;2.78;;;;;;;;;;5066513;28;20066;-48
2021/04/20 13:54:31;;;;;;;7.25;2.67;;;;;;;;;;5069634;28;20431;-48
2021/04/20 13:56:59;;;;;;;7.35;2.60;;;;;;;;;;5069017;28;20146;-47
2021/04/20 13:59:27;;;;;;;6.53;2.75;;;;;;;;;;5063396;28;20048;-50
2021/04/20 14:01:54;;;;;;;6.38;2.67;;;;;;;;;;5068898;28;20044;-51
2021/04/20 14:04:26;;;;;;;6.82;2.00;;;;;;;;;;5062890;28;20036;-48
2021/04/20 14:06:54;;;;;;;9.48;2.20;;;;;;;;;;5067995;28;20484;-49
2021/04/20 14:09:24;;;;;;;7.97;2.60;;;;;;;;;;5064594;28;20052;-48
2021/04/20 14:11:58;;;;;;;6.18;2.28;;;;;;;;;;5068935;28;20040;-51
2021/04/20 14:14:33;;;;;;;5.82;2.38;;;;;;;;;;5075785;28;20041;-49
2021/04/20 14:17:01;;;;;;;8.27;2.47;;;;;;;;;;5066955;28;20040;-49
2021/04/20 14:19:28;;;;;;;7.57;2.40;;;;;;;;;;5062695;28;20504;-49
2021/04/20 14:22:07;;;;;;;8.40;2.63;;;;;;;;;;5068016;28;20048;-47
2021/04/20 14:24:35;;;;;;;5.13;2.30;;;;;;;;;;5067121;28;20048;-49
2021/04/20 14:27:05;;;;;;;7.03;2.47;;;;;;;;;;5065535;28;20116;-51
2021/04/20 14:29:33;;;;;;;6.10;2.65;;;;;;;;;;5064823;28;20385;-48
2021/04/20 14:31:59;;;;;;;4.55;2.35;;;;;;;;;;5065937;28;20032;-52
2021/04/20 14:34:30;;;;;;;7.05;2.75;;;;;;;;;;5068182;28;20048;-47
2021/04/20 14:36:58;;;;;;;11.95;2.58;;;;;;;;;;5067837;28;20047;-50
2021/04/20 14:39:42;;;;;;;5.70;2.50;;;;;;;;;;5066289;28;20045;-48
2021/04/20 14:42:10;;;;;;;6.10;2.53;;;;;;;;;;5065193;28;20059;-50
2021/04/20 14:44:36;;;;;;;;;;;;;;;;;;5064285;28;20135;-54
2021/04/20 14:47:04;;;;;;;3.65;2.30;;;;;;;;;;5065446;28;19978;-49
2021/04/20 14:49:31;;;;;;;7.63;2.25;;;;;;;;;;5068810;28;20044;-50
2021/04/20 14:52:03;;;;;;;7.47;2.40;;;;;;;;;;5063962;28;20484;-50
2021/04/20 14:54:32;;;;;;;6.70;2.40;;;;;;;;;;5068644;28;20313;-48
2021/04/20 14:56:58;;;;;;;9.43;2.42;;;;;;;;;;5068302;28;20079;-49